createdAt,value
2018-12-16T00:00:43.727Z,14.00
2018-12-16T00:03:47.328Z,13.40
2018-12-16T00:06:51.162Z,13.33
2018-12-16T00:09:55.038Z,13.03
2018-12-16T00:12:58.716Z,12.80
2018-12-16T00:16:02.377Z,12.80
2018-12-16T00:19:08.091Z,14.37
2018-12-16T00:22:12.727Z,13.07
2018-12-16T00:25:18.413Z,12.53
2018-12-16T00:28:22.094Z,13.67
2018-12-16T00:31:26.656Z,13.37
2018-12-16T00:34:30.269Z,12.97
2018-12-16T00:37:34.923Z,12.70
2018-12-16T00:40:38.624Z,13.60
2018-12-16T00:43:42.503Z,13.37
2018-12-16T00:46:47.043Z,13.23
2018-12-16T00:49:50.817Z,13.73
2018-12-16T00:52:54.324Z,13.57
2018-12-16T00:55:58.071Z,13.97
2018-12-16T00:59:01.591Z,13.37
2018-12-16T01:02:05.456Z,14.27
2018-12-16T01:05:09.163Z,13.43
2018-12-16T01:08:12.811Z,13.37
2018-12-16T01:11:16.887Z,13.93
2018-12-16T01:14:20.481Z,13.27
2018-12-16T01:17:23.921Z,13.57
2018-12-16T01:20:27.591Z,13.03
2018-12-16T01:23:34.600Z,13.27
2018-12-16T01:26:38.205Z,13.33
2018-12-16T01:29:48.261Z,13.60
2018-12-16T01:32:52.867Z,13.67
2018-12-16T01:35:56.505Z,14.60
2018-12-16T01:39:00.120Z,13.07
2018-12-16T01:42:03.834Z,14.00
2018-12-16T01:45:07.476Z,13.40
2018-12-16T01:48:11.045Z,14.20
2018-12-16T01:51:14.637Z,13.80
2018-12-16T01:54:18.337Z,13.83
2018-12-16T01:57:21.897Z,13.23
2018-12-16T02:00:25.455Z,13.70
2018-12-16T02:03:29.147Z,14.17
2018-12-16T02:06:32.860Z,14.73
2018-12-16T02:09:36.585Z,13.47
2018-12-16T02:12:40.129Z,14.50
2018-12-16T02:15:43.707Z,14.00
2018-12-16T02:18:47.195Z,13.53
2018-12-16T02:21:50.683Z,14.57
2018-12-16T02:24:54.271Z,14.73
2018-12-16T02:27:58.144Z,14.40
2018-12-16T02:31:01.752Z,14.17
2018-12-16T02:34:05.247Z,15.03
2018-12-16T02:37:08.827Z,14.20
2018-12-16T02:40:12.374Z,13.90
2018-12-16T02:43:15.973Z,13.80
2018-12-16T02:46:19.574Z,13.40
2018-12-16T02:49:23.076Z,14.63
2018-12-16T02:52:26.619Z,14.20
2018-12-16T02:55:30.133Z,15.43
2018-12-16T02:58:33.723Z,14.77
2018-12-16T03:01:37.435Z,14.37
2018-12-16T03:04:40.955Z,13.87
2018-12-16T03:07:44.468Z,13.97
2018-12-16T03:10:47.957Z,14.23
2018-12-16T03:13:51.606Z,14.13
2018-12-16T03:16:55.134Z,14.70
2018-12-16T03:19:58.688Z,13.87
2018-12-16T03:23:02.358Z,14.07
2018-12-16T03:26:05.944Z,14.23
2018-12-16T03:29:09.378Z,14.43
2018-12-16T03:32:12.882Z,14.17
2018-12-16T03:35:16.801Z,13.97
2018-12-16T03:38:20.465Z,14.03
2018-12-16T03:41:23.985Z,14.23
2018-12-16T03:44:27.490Z,15.00
2018-12-16T03:47:31.104Z,14.43
2018-12-16T03:50:34.772Z,14.00
2018-12-16T03:53:38.321Z,13.97
2018-12-16T03:56:41.882Z,14.97
2018-12-16T03:59:45.388Z,14.10
2018-12-16T04:02:48.836Z,14.33
2018-12-16T04:05:52.369Z,14.60
2018-12-16T04:08:55.916Z,14.10
2018-12-16T04:11:59.497Z,13.80
2018-12-16T04:15:03.047Z,14.37
2018-12-16T04:18:06.732Z,14.50
2018-12-16T04:21:10.394Z,15.53
2018-12-16T04:24:13.852Z,15.13
2018-12-16T04:27:17.442Z,14.57
2018-12-16T04:30:20.909Z,16.80
2018-12-16T04:33:24.550Z,14.67
2018-12-16T04:36:28.118Z,16.30
2018-12-16T04:39:31.904Z,16.70
2018-12-16T04:42:35.545Z,16.90
2018-12-16T04:45:39.137Z,17.03
2018-12-16T04:48:42.664Z,17.77
2018-12-16T04:51:46.152Z,15.90
2018-12-16T04:54:49.635Z,17.10
2018-12-16T04:57:53.164Z,15.63
2018-12-16T05:00:56.582Z,17.80
2018-12-16T05:04:00.005Z,17.97
2018-12-16T05:07:04.680Z,17.23
2018-12-16T05:10:19.375Z,16.67
2018-12-16T05:13:22.881Z,17.20
2018-12-16T05:16:26.421Z,16.70
2018-12-16T05:19:29.950Z,17.73
2018-12-16T05:22:33.535Z,17.80
2018-12-16T05:25:37.159Z,18.10
2018-12-16T05:28:40.781Z,17.73
2018-12-16T05:31:44.355Z,19.80
2018-12-16T05:34:47.927Z,18.53
2018-12-16T05:37:51.409Z,19.33
2018-12-16T05:40:54.880Z,19.20
2018-12-16T05:43:58.447Z,19.50
2018-12-16T05:47:01.931Z,18.33
2018-12-16T05:50:06.443Z,19.80
2018-12-16T05:53:10.624Z,19.33
2018-12-16T05:56:15.538Z,18.67
2018-12-16T05:59:19.148Z,19.50
2018-12-16T06:02:22.742Z,19.13
2018-12-16T06:05:28.170Z,18.60
2018-12-16T06:08:31.762Z,17.60
2018-12-16T06:11:35.326Z,18.80
2018-12-16T06:14:38.864Z,18.17
2018-12-16T06:17:42.316Z,18.67
2018-12-16T06:20:46.770Z,19.57
2018-12-16T06:23:55.473Z,18.20
2018-12-16T06:26:53.989Z,17.87
2018-12-16T06:29:57.564Z,18.10
2018-12-16T06:33:01.155Z,18.23
2018-12-16T06:36:04.645Z,19.00
2018-12-16T06:39:08.101Z,17.97
2018-12-16T06:42:11.915Z,18.00
2018-12-16T06:45:15.436Z,17.30
2018-12-16T06:48:18.994Z,18.10
2018-12-16T06:51:22.507Z,17.73
2018-12-16T06:54:26.239Z,17.73
2018-12-16T06:57:29.686Z,18.83
2018-12-16T07:00:33.046Z,18.83
2018-12-16T07:03:37.155Z,18.60
2018-12-16T07:06:40.706Z,17.73
2018-12-16T07:09:44.337Z,19.00
2018-12-16T07:12:47.973Z,18.07
2018-12-16T07:15:51.537Z,18.40
2018-12-16T07:18:55.726Z,19.70
2018-12-16T07:21:59.272Z,17.43
2018-12-16T07:25:03.070Z,19.00
2018-12-16T07:28:06.801Z,17.53
2018-12-16T07:31:10.436Z,18.67
2018-12-16T07:34:14.126Z,17.67
2018-12-16T07:37:19.192Z,18.00
2018-12-16T07:40:22.012Z,18.60
2018-12-16T07:43:25.740Z,17.40
2018-12-16T07:46:29.672Z,17.50
2018-12-16T07:49:33.327Z,17.37
2018-12-16T07:52:37.167Z,18.23
2018-12-16T07:55:40.898Z,19.33
2018-12-16T07:58:44.683Z,17.63
2018-12-16T08:01:48.305Z,18.53
2018-12-16T08:04:51.903Z,17.63
2018-12-16T08:07:55.554Z,19.33
2018-12-16T08:10:59.070Z,18.50
2018-12-16T08:14:02.644Z,18.67
2018-12-16T08:17:06.413Z,19.83
2018-12-16T08:20:10.197Z,19.00
2018-12-16T08:23:13.699Z,18.73
2018-12-16T08:26:17.304Z,18.53
2018-12-16T08:29:20.931Z,18.93
2018-12-16T08:32:24.412Z,18.37
2018-12-16T08:35:28.073Z,19.00
2018-12-16T08:38:31.622Z,20.00
2018-12-16T08:41:35.404Z,19.77
2018-12-16T08:44:39.029Z,18.30
2018-12-16T08:47:42.532Z,18.30
2018-12-16T08:50:46.112Z,19.30
2018-12-16T08:53:50.153Z,19.63
2018-12-16T08:56:56.091Z,18.67
2018-12-16T08:59:59.561Z,19.47
2018-12-16T09:03:03.187Z,18.70
2018-12-16T09:06:06.721Z,19.97
2018-12-16T09:09:10.365Z,19.07
2018-12-16T09:12:13.916Z,20.80
2018-12-16T09:15:17.546Z,18.33
2018-12-16T09:18:22.122Z,19.93
2018-12-16T09:21:25.795Z,19.03
2018-12-16T09:24:29.484Z,19.27
2018-12-16T09:27:33.047Z,20.33
2018-12-16T09:30:36.543Z,20.07
2018-12-16T09:33:40.134Z,20.27
2018-12-16T09:36:43.716Z,20.87
2018-12-16T09:39:47.293Z,19.37
2018-12-16T09:42:50.948Z,20.30
2018-12-16T09:45:54.557Z,19.37
2018-12-16T09:48:58.059Z,19.17
2018-12-16T09:52:01.692Z,18.87
2018-12-16T09:55:06.552Z,18.97
2018-12-16T09:58:10.366Z,19.00
2018-12-16T10:01:13.990Z,19.17
2018-12-16T10:04:17.366Z,20.80
2018-12-16T10:07:21.002Z,21.37
2018-12-16T10:10:24.472Z,21.50
2018-12-16T10:13:27.975Z,20.87
2018-12-16T10:16:32.710Z,19.17
2018-12-16T10:19:36.180Z,19.67
2018-12-16T10:22:40.530Z,18.97
2018-12-16T10:25:45.162Z,19.80
2018-12-16T10:28:48.767Z,18.23
2018-12-16T10:31:52.365Z,18.83
2018-12-16T10:34:56.002Z,19.80
2018-12-16T10:37:59.758Z,18.70
2018-12-16T10:41:03.620Z,20.43
2018-12-16T10:44:07.211Z,18.73
2018-12-16T10:47:10.744Z,18.77
2018-12-16T10:50:14.416Z,20.03
2018-12-16T10:53:17.961Z,20.13
2018-12-16T10:56:22.883Z,20.43
2018-12-16T10:59:26.741Z,20.77
2018-12-16T11:02:36.258Z,20.17
2018-12-16T11:05:41.199Z,19.17
2018-12-16T11:08:46.728Z,20.40
2018-12-16T11:11:52.272Z,20.63
2018-12-16T11:15:00.589Z,20.33
2018-12-16T11:18:16.175Z,20.90
2018-12-16T11:21:22.740Z,20.10
2018-12-16T11:24:27.755Z,21.70
2018-12-16T11:27:34.336Z,19.67
2018-12-16T11:30:42.887Z,20.07
2018-12-16T11:33:51.458Z,21.13
2018-12-16T11:37:00.436Z,19.93
2018-12-16T11:40:09.884Z,20.17
2018-12-16T11:43:17.486Z,20.47
2018-12-16T11:46:25.829Z,21.33
2018-12-16T11:49:35.787Z,20.93
2018-12-16T11:52:45.950Z,21.67
2018-12-16T11:55:54.907Z,21.20
2018-12-16T11:59:05.615Z,21.80
2018-12-16T12:05:57.981Z,20.80
2018-12-16T12:09:01.715Z,22.47
2018-12-16T12:12:05.530Z,22.50
2018-12-16T12:15:09.228Z,23.03
2018-12-16T12:18:12.669Z,22.40
2018-12-16T12:21:16.274Z,21.93
2018-12-16T12:24:19.915Z,22.73
2018-12-16T12:27:23.500Z,22.10
2018-12-16T12:30:27.184Z,21.50
2018-12-16T12:33:30.747Z,22.33
2018-12-16T12:36:34.256Z,21.77
2018-12-16T12:39:37.862Z,22.23
2018-12-16T12:42:41.777Z,23.67
2018-12-16T12:45:45.437Z,22.87
2018-12-16T12:48:48.973Z,24.33
2018-12-16T12:51:52.548Z,24.23
2018-12-16T12:54:56.224Z,25.13
2018-12-16T12:58:00.146Z,23.93
2018-12-16T13:01:03.678Z,23.00
2018-12-16T13:04:07.278Z,24.37
2018-12-16T13:07:10.709Z,23.33
2018-12-16T13:10:14.334Z,24.27
2018-12-16T13:13:19.107Z,23.67
2018-12-16T13:16:22.770Z,26.57
2018-12-16T13:19:26.497Z,25.20
2018-12-16T13:22:30.133Z,25.70
2018-12-16T13:25:45.147Z,27.83
2018-12-16T13:28:49.256Z,28.10
2018-12-16T13:31:53.938Z,28.50
2018-12-16T13:34:57.563Z,27.33
2018-12-16T13:38:01.280Z,26.60
2018-12-16T13:41:05.184Z,31.23
2018-12-16T13:44:09.053Z,27.10
2018-12-16T13:47:12.415Z,26.70
2018-12-16T13:50:17.999Z,25.50
2018-12-16T13:53:21.440Z,24.40
2018-12-16T13:56:25.057Z,28.50
2018-12-16T13:59:28.811Z,28.27
2018-12-16T14:02:32.401Z,28.70
2018-12-16T14:05:36.028Z,29.60
2018-12-16T14:08:39.646Z,27.20
2018-12-16T14:11:45.097Z,28.87
2018-12-16T14:14:48.702Z,29.03
2018-12-16T14:17:52.544Z,29.97
2018-12-16T14:20:56.161Z,30.10
2018-12-16T14:24:00.813Z,28.83
2018-12-16T14:27:04.433Z,27.30
2018-12-16T14:30:10.932Z,28.10
2018-12-16T14:33:14.461Z,28.37
2018-12-16T14:36:18.845Z,27.33
2018-12-16T14:39:23.955Z,25.37
2018-12-16T14:42:27.598Z,26.23
2018-12-16T14:45:36.776Z,25.83
2018-12-16T14:48:41.423Z,26.57
2018-12-16T14:51:45.005Z,28.27
2018-12-16T14:54:48.644Z,26.60
2018-12-16T14:57:52.663Z,28.17
2018-12-16T15:00:56.258Z,28.03
2018-12-16T15:03:59.901Z,27.87
2018-12-16T15:07:03.528Z,30.03
2018-12-16T15:10:10.642Z,28.20
2018-12-16T15:13:14.117Z,33.00
2018-12-16T15:16:17.571Z,37.10
2018-12-16T15:19:21.155Z,34.73
2018-12-16T15:22:24.771Z,30.97
2018-12-16T15:25:28.426Z,33.10
2018-12-16T15:28:32.013Z,32.03
2018-12-16T15:31:35.623Z,37.07
2018-12-16T15:34:39.266Z,33.57
2018-12-16T15:37:42.797Z,35.13
2018-12-16T15:40:46.566Z,31.13
2018-12-16T15:43:50.316Z,31.20
2018-12-16T15:46:54.516Z,32.57
2018-12-16T15:49:58.201Z,31.30
2018-12-16T15:53:01.782Z,36.47
2018-12-16T15:56:09.320Z,34.90
2018-12-16T15:59:09.291Z,30.87
2018-12-16T16:02:12.857Z,30.47
2018-12-16T16:05:16.333Z,31.27
2018-12-16T16:08:20.127Z,30.43
2018-12-16T16:11:23.637Z,31.67
2018-12-16T16:14:27.077Z,31.73
2018-12-16T16:17:30.682Z,31.00
2018-12-16T16:20:34.240Z,29.07
2018-12-16T16:23:38.038Z,30.10
2018-12-16T16:26:41.540Z,30.20
2018-12-16T16:29:45.880Z,29.60
2018-12-16T16:32:49.525Z,30.43
2018-12-16T16:35:54.002Z,30.67
2018-12-16T16:38:58.023Z,30.60
2018-12-16T16:42:01.831Z,31.07
2018-12-16T16:45:06.582Z,30.83
2018-12-16T16:48:10.268Z,31.17
2018-12-16T16:51:13.870Z,30.23
2018-12-16T16:54:17.557Z,30.00
2018-12-16T16:57:22.390Z,31.87
2018-12-16T17:00:26.139Z,33.70
2018-12-16T17:03:30.241Z,30.63
2018-12-16T17:06:34.054Z,28.47
2018-12-16T17:09:39.618Z,30.67
2018-12-16T17:12:43.147Z,31.37
2018-12-16T17:15:46.605Z,31.37
2018-12-16T17:18:50.213Z,30.67
2018-12-16T17:21:53.981Z,30.33
2018-12-16T17:24:57.456Z,33.10
2018-12-16T17:28:00.992Z,35.23
2018-12-16T17:31:04.414Z,36.90
2018-12-16T17:34:08.065Z,36.23
2018-12-16T17:37:12.852Z,33.53
2018-12-16T17:40:16.498Z,34.57
2018-12-16T17:43:20.112Z,34.57
2018-12-16T17:46:23.811Z,33.93
2018-12-16T17:49:27.346Z,34.57
2018-12-16T17:52:31.061Z,34.53
2018-12-16T17:55:34.600Z,32.33
2018-12-16T17:58:38.165Z,31.97
2018-12-16T18:01:41.669Z,30.47
2018-12-16T18:04:45.304Z,33.27
2018-12-16T18:07:48.948Z,33.50
2018-12-16T18:10:53.545Z,30.57
2018-12-16T18:13:57.218Z,30.07
2018-12-16T18:17:00.982Z,30.93
2018-12-16T18:20:05.790Z,31.10
2018-12-16T18:23:09.347Z,32.03
2018-12-16T18:26:12.920Z,32.70
2018-12-16T18:29:16.809Z,31.33
2018-12-16T18:32:20.665Z,30.53
2018-12-16T18:35:24.228Z,30.47
2018-12-16T18:38:27.931Z,29.87
2018-12-16T18:41:31.475Z,27.70
2018-12-16T18:44:35.145Z,29.17
2018-12-16T18:47:38.747Z,29.67
2018-12-16T18:50:42.425Z,27.43
2018-12-16T18:53:45.980Z,29.90
2018-12-16T18:56:51.300Z,29.50
2018-12-16T18:59:53.333Z,28.83
2018-12-16T19:02:57.011Z,28.53
2018-12-16T19:06:00.737Z,28.57
2018-12-16T19:09:05.307Z,30.00
2018-12-16T19:12:09.038Z,31.33
2018-12-16T19:15:12.676Z,29.17
2018-12-16T19:18:16.259Z,29.27
2018-12-16T19:21:19.884Z,29.50
2018-12-16T19:24:23.722Z,28.63
2018-12-16T19:27:27.266Z,28.13
2018-12-16T19:30:30.895Z,27.47
2018-12-16T19:33:34.748Z,28.37
2018-12-16T19:36:38.184Z,26.83
2018-12-16T19:39:41.960Z,28.00
2018-12-16T19:42:45.398Z,28.20
2018-12-16T19:45:49.029Z,28.90
2018-12-16T19:48:52.510Z,26.43
2018-12-16T19:51:56.129Z,26.37
2018-12-16T19:54:59.769Z,27.13
2018-12-16T19:58:03.218Z,26.23
2018-12-16T20:01:07.003Z,26.53
2018-12-16T20:04:15.625Z,25.63
2018-12-16T20:07:20.240Z,26.07
2018-12-16T20:10:23.868Z,25.77
2018-12-16T20:13:27.446Z,26.10
2018-12-16T20:16:31.108Z,26.10
2018-12-16T20:19:34.828Z,24.67
2018-12-16T20:22:38.602Z,25.80
2018-12-16T20:25:42.185Z,24.90
2018-12-16T20:28:45.621Z,25.10
2018-12-16T20:31:49.172Z,24.70
2018-12-16T20:34:53.686Z,26.80
2018-12-16T20:37:57.325Z,23.97
2018-12-16T20:41:00.875Z,24.43
2018-12-16T20:44:04.419Z,24.70
2018-12-16T20:47:08.017Z,25.87
2018-12-16T20:50:11.521Z,26.53
2018-12-16T20:53:15.227Z,25.70
2018-12-16T20:56:18.846Z,24.07
2018-12-16T20:59:23.304Z,24.57
2018-12-16T21:02:26.831Z,25.40
2018-12-16T21:05:30.409Z,25.23
2018-12-16T21:08:34.109Z,25.03
2018-12-16T21:11:42.944Z,26.33
2018-12-16T21:14:51.877Z,23.03
2018-12-16T21:18:00.724Z,23.83
2018-12-16T21:21:04.382Z,21.47
2018-12-16T21:24:07.920Z,22.00
2018-12-16T21:27:11.398Z,21.20
2018-12-16T21:30:14.872Z,21.70
2018-12-16T21:33:18.761Z,21.23
2018-12-16T21:36:22.266Z,20.60
2018-12-16T21:39:25.876Z,21.60
2018-12-16T21:42:29.447Z,20.73
2018-12-16T21:45:34.380Z,21.10
2018-12-16T21:48:38.175Z,20.23
2018-12-16T21:51:41.870Z,19.77
2018-12-16T21:54:45.449Z,19.63
2018-12-16T21:57:49.019Z,19.53
2018-12-16T22:00:52.851Z,19.50
2018-12-16T22:03:56.536Z,20.63
2018-12-16T22:07:00.103Z,19.80
2018-12-16T22:10:03.819Z,20.07
2018-12-16T22:13:07.414Z,20.73
2018-12-16T22:16:11.005Z,19.63
2018-12-16T22:19:14.604Z,19.43
2018-12-16T22:22:18.188Z,20.23
2018-12-16T22:25:21.838Z,18.97
2018-12-16T22:28:25.431Z,19.77
2018-12-16T22:31:29.051Z,20.00
2018-12-16T22:34:32.750Z,18.90
2018-12-16T22:37:36.416Z,20.13
2018-12-16T22:40:40.685Z,19.63
2018-12-16T22:43:43.970Z,19.10
2018-12-16T22:46:47.769Z,20.57
2018-12-16T22:49:51.293Z,20.50
2018-12-16T22:52:54.856Z,21.20
2018-12-16T22:55:58.556Z,20.60
2018-12-16T22:59:02.166Z,21.70
2018-12-16T23:02:05.757Z,20.63
2018-12-16T23:05:09.308Z,20.73
2018-12-16T23:08:12.767Z,21.07
2018-12-16T23:11:16.465Z,21.53
2018-12-16T23:14:20.109Z,18.80
2018-12-16T23:17:23.742Z,20.10
2018-12-16T23:20:29.499Z,19.77
2018-12-16T23:23:33.010Z,19.47
2018-12-16T23:26:36.836Z,18.83
2018-12-16T23:29:40.338Z,19.47
2018-12-16T23:32:43.854Z,18.43
2018-12-16T23:35:48.687Z,19.20
2018-12-16T23:38:52.192Z,19.20
2018-12-16T23:41:55.754Z,20.13
2018-12-16T23:44:59.203Z,18.77
2018-12-16T23:48:02.752Z,18.47
2018-12-16T23:51:06.335Z,19.73
2018-12-16T23:54:10.064Z,19.27
2018-12-16T23:57:15.807Z,18.83
